Time,TemperatureF,DewpointF,PressureIn,WindDirection,WindDirectionDegrees,WindSpeedMPH,WindSpeedGustMPH,Humidity,HourlyPrecipIn,Conditions,Clouds,dailyrainin,SoftwareType,DateUTC
2013-05-24 00:11:00,81.4,75.0,29.90,ENE,63,10.0,16.0,82,0.00,,,0.00,weatherlink.com 1.10,2013-05-24 04:11:00,
2013-05-24 00:26:00,81.3,76.0,29.90,East,98,5.0,10.0,83,0.00,,,0.00,weatherlink.com 1.10,2013-05-24 04:26:00,
2013-05-24 00:41:00,81.2,75.0,29.89,NE,51,6.0,11.0,82,0.00,,,0.00,weatherlink.com 1.10,2013-05-24 04:41:00,
2013-05-24 00:56:00,81.2,75.0,29.88,NE,46,6.0,13.0,82,0.00,,,0.00,weatherlink.com 1.10,2013-05-24 04:56:00,
2013-05-24 01:11:00,81.2,75.0,29.88,NE,49,4.0,13.0,82,0.00,,,0.00,weatherlink.com 1.10,2013-05-24 05:11:00,
2013-05-24 01:26:00,81.1,76.0,29.88,ENE,63,5.0,11.0,83,0.00,,,0.00,weatherlink.com 1.10,2013-05-24 05:26:00,
2013-05-24 01:41:00,81.0,75.0,29.87,East,87,6.0,15.0,83,0.00,,,0.00,weatherlink.com 1.10,2013-05-24 05:41:00,
2013-05-24 01:56:00,80.9,75.0,29.87,East,82,6.0,12.0,83,0.00,,,0.00,weatherlink.com 1.10,2013-05-24 05:56:00,
2013-05-24 02:11:00,80.8,75.0,29.86,East,92,8.0,13.0,83,0.00,,,0.00,weatherlink.com 1.10,2013-05-24 06:11:00,
2013-05-24 02:26:00,80.9,76.0,29.86,ENE,78,5.0,10.0,84,0.00,,,0.00,weatherlink.com 1.10,2013-05-24 06:26:00,
2013-05-24 02:41:00,80.9,75.0,29.86,ENE,60,7.0,11.0,83,0.00,,,0.00,weatherlink.com 1.10,2013-05-24 06:41:00,
2013-05-24 02:56:00,81.0,75.0,29.86,ENE,62,5.0,13.0,82,0.00,,,0.00,weatherlink.com 1.10,2013-05-24 06:56:00,
2013-05-24 03:11:00,81.0,75.0,29.86,East,82,11.0,15.0,83,0.00,,,0.00,weatherlink.com 1.10,2013-05-24 07:11:00,
2013-05-24 03:26:00,81.0,75.0,29.86,East,87,7.0,13.0,82,0.00,,,0.00,weatherlink.com 1.10,2013-05-24 07:26:00,
2013-05-24 03:41:00,80.9,75.0,29.86,ENE,76,5.0,12.0,83,0.00,,,0.00,weatherlink.com 1.10,2013-05-24 07:41:00,
2013-05-24 03:56:00,81.1,76.0,29.86,ENE,72,7.0,14.0,83,0.00,,,0.00,weatherlink.com 1.10,2013-05-24 07:56:00,
2013-05-24 04:11:00,81.1,75.0,29.86,ENE,57,7.0,15.0,82,0.00,,,0.00,weatherlink.com 1.10,2013-05-24 08:11:00,
2013-05-24 04:26:00,81.1,75.0,29.86,NE,51,6.0,13.0,82,0.00,,,0.00,weatherlink.com 1.10,2013-05-24 08:26:00,
2013-05-24 04:41:00,81.1,75.0,29.86,East,98,6.0,15.0,82,0.00,,,0.00,weatherlink.com 1.10,2013-05-24 08:41:00,
2013-05-24 04:56:00,80.9,75.0,29.87,East,90,5.0,14.0,82,0.00,,,0.00,weatherlink.com 1.10,2013-05-24 08:56:00,
2013-05-24 05:11:00,80.9,75.0,29.87,East,90,3.0,13.0,82,0.00,,,0.00,weatherlink.com 1.10,2013-05-24 09:11:00,
2013-05-24 05:26:00,80.9,75.0,29.87,ENE,77,3.0,15.0,81,0.00,,,0.00,weatherlink.com 1.10,2013-05-24 09:26:00,
2013-05-24 05:41:00,80.9,75.0,29.88,ESE,111,1.0,12.0,81,0.00,,,0.00,weatherlink.com 1.10,2013-05-24 09:41:00,
2013-05-24 05:57:00,81.1,75.0,29.88,East,98,3.0,11.0,82,0.00,,,0.00,weatherlink.com 1.10,2013-05-24 09:57:00,
2013-05-24 06:11:00,81.0,75.0,29.88,East,101,5.0,10.0,83,0.00,,,0.00,weatherlink.com 1.10,2013-05-24 10:11:00,
2013-05-24 06:27:00,80.9,75.0,29.89,East,91,3.0,13.0,83,0.00,,,0.00,weatherlink.com 1.10,2013-05-24 10:27:00,
2013-05-24 06:42:00,81.0,75.0,29.89,East,92,2.0,14.0,81,0.00,,,0.00,weatherlink.com 1.10,2013-05-24 10:42:00,
2013-05-24 06:57:00,81.2,75.0,29.89,SE,140,6.0,13.0,82,0.00,,,0.00,weatherlink.com 1.10,2013-05-24 10:57:00,
2013-05-24 07:12:00,81.5,75.0,29.90,East,93,9.0,14.0,80,0.00,,,0.00,weatherlink.com 1.10,2013-05-24 11:12:00,
2013-05-24 07:27:00,81.8,76.0,29.90,ESE,103,8.0,14.0,81,0.00,,,0.00,weatherlink.com 1.10,2013-05-24 11:27:00,
2013-05-24 07:42:00,82.0,76.0,29.90,ENE,76,5.0,13.0,81,0.00,,,0.00,weatherlink.com 1.10,2013-05-24 11:42:00,
2013-05-24 07:57:00,82.6,76.0,29.91,ESE,116,9.0,16.0,79,0.00,,,0.00,weatherlink.com 1.10,2013-05-24 11:57:00,
2013-05-24 08:12:00,82.8,76.0,29.91,East,101,10.0,15.0,79,0.00,,,0.00,weatherlink.com 1.10,2013-05-24 12:12:00,
2013-05-24 08:27:00,83.8,76.0,29.91,East,101,11.0,15.0,76,0.00,,,0.00,weatherlink.com 1.10,2013-05-24 12:27:00,
2013-05-24 08:42:00,83.9,75.0,29.91,East,101,9.0,17.0,75,0.00,,,0.00,weatherlink.com 1.10,2013-05-24 12:42:00,
2013-05-24 08:57:00,84.1,76.0,29.91,ESE,111,8.0,16.0,76,0.00,,,0.00,weatherlink.com 1.10,2013-05-24 12:57:00,
2013-05-24 09:12:00,85.1,77.0,29.91,ENE,77,5.0,17.0,76,0.00,,,0.00,weatherlink.com 1.10,2013-05-24 13:12:00,
2013-05-24 09:27:00,85.9,77.0,29.92,NE,51,8.0,19.0,74,0.00,,,0.00,weatherlink.com 1.10,2013-05-24 13:27:00,
2013-05-24 09:42:00,85.9,76.0,29.92,SE,128,11.0,17.0,73,0.00,,,0.00,weatherlink.com 1.10,2013-05-24 13:42:00,
2013-05-24 09:57:00,85.7,77.0,29.91,ESE,108,13.0,16.0,74,0.00,,,0.00,weatherlink.com 1.10,2013-05-24 13:57:00,
2013-05-24 10:12:00,86.1,77.0,29.92,East,90,10.0,15.0,73,0.00,,,0.00,weatherlink.com 1.10,2013-05-24 14:12:00,
2013-05-24 10:27:00,86.0,76.0,29.91,East,101,7.0,16.0,72,0.00,,,0.00,weatherlink.com 1.10,2013-05-24 14:27:00,
2013-05-24 10:42:00,85.2,77.0,29.91,NE,47,11.0,17.0,75,0.00,,,0.00,weatherlink.com 1.10,2013-05-24 14:42:00,
2013-05-24 10:57:00,86.0,76.0,29.91,ESE,121,11.0,22.0,72,0.00,,,0.00,weatherlink.com 1.10,2013-05-24 14:57:00,
2013-05-24 11:12:00,86.6,76.0,29.91,ESE,115,2.0,17.0,71,0.00,,,0.00,weatherlink.com 1.10,2013-05-24 15:12:00,
2013-05-24 11:27:00,87.0,76.0,29.91,ESE,115,9.0,17.0,70,0.00,,,0.00,weatherlink.com 1.10,2013-05-24 15:27:00,
2013-05-24 11:42:00,87.2,77.0,29.91,SE,126,12.0,16.0,71,0.00,,,0.00,weatherlink.com 1.10,2013-05-24 15:42:00,
2013-05-24 11:57:00,86.9,77.0,29.91,SE,142,3.0,16.0,72,0.00,,,0.00,weatherlink.com 1.10,2013-05-24 15:57:00,
2013-05-24 12:12:00,87.2,77.0,29.91,ENE,65,10.0,17.0,72,0.00,,,0.00,weatherlink.com 1.10,2013-05-24 16:12:00,
2013-05-24 12:27:00,87.0,76.0,29.90,East,85,6.0,18.0,70,0.00,,,0.00,weatherlink.com 1.10,2013-05-24 16:27:00,
2013-05-24 12:42:00,87.1,76.0,29.90,East,92,9.0,16.0,70,0.00,,,0.00,weatherlink.com 1.10,2013-05-24 16:42:00,
2013-05-24 12:57:00,86.1,76.0,29.90,East,92,6.0,17.0,71,0.00,,,0.00,weatherlink.com 1.10,2013-05-24 16:57:00,
2013-05-24 13:12:00,87.6,76.0,29.90,NE,35,4.0,19.0,68,0.00,,,0.00,weatherlink.com 1.10,2013-05-24 17:12:00,
2013-05-24 13:27:00,87.5,75.0,29.89,East,96,11.0,16.0,66,0.00,,,0.00,weatherlink.com 1.10,2013-05-24 17:27:00,
2013-05-24 13:42:00,87.5,75.0,29.88,ENE,73,4.0,16.0,66,0.00,,,0.00,weatherlink.com 1.10,2013-05-24 17:42:00,
2013-05-24 13:57:00,86.9,76.0,29.88,East,96,11.0,18.0,70,0.00,,,0.00,weatherlink.com 1.10,2013-05-24 17:57:00,
2013-05-24 14:12:00,87.4,76.0,29.87,ENE,65,8.0,18.0,69,0.00,,,0.00,weatherlink.com 1.10,2013-05-24 18:12:00,
2013-05-24 14:27:00,87.1,76.0,29.87,NE,44,5.0,17.0,70,0.00,,,0.00,weatherlink.com 1.10,2013-05-24 18:27:00,
2013-05-24 14:42:00,86.7,77.0,29.86,ESE,118,8.0,15.0,72,0.00,,,0.00,weatherlink.com 1.10,2013-05-24 18:42:00,
2013-05-24 14:57:00,86.5,76.0,29.86,ENE,65,10.0,18.0,70,0.00,,,0.00,weatherlink.com 1.10,2013-05-24 18:57:00,
2013-05-24 15:12:00,86.0,76.0,29.86,ESE,108,9.0,16.0,71,0.00,,,0.00,weatherlink.com 1.10,2013-05-24 19:12:00,
2013-05-24 15:27:00,85.9,76.0,29.86,ENE,60,10.0,17.0,73,0.00,,,0.00,weatherlink.com 1.10,2013-05-24 19:27:00,
2013-05-24 15:42:00,85.9,76.0,29.86,East,86,13.0,18.0,72,0.00,,,0.00,weatherlink.com 1.10,2013-05-24 19:42:00,
2013-05-24 15:57:00,86.1,77.0,29.85,NE,44,5.0,16.0,73,0.00,,,0.00,weatherlink.com 1.10,2013-05-24 19:57:00,
2013-05-24 16:12:00,86.0,76.0,29.85,ESE,118,4.0,21.0,72,0.00,,,0.00,weatherlink.com 1.10,2013-05-24 20:12:00,
2013-05-24 16:27:00,85.4,76.0,29.85,ENE,76,16.0,16.0,74,0.00,,,0.00,weatherlink.com 1.10,2013-05-24 20:27:00,
2013-05-24 16:42:00,85.5,76.0,29.84,East,97,9.0,14.0,73,0.00,,,0.00,weatherlink.com 1.10,2013-05-24 20:42:00,
2013-05-24 16:57:00,85.6,76.0,29.84,NE,44,7.0,15.0,73,0.00,,,0.00,weatherlink.com 1.10,2013-05-24 20:57:00,
2013-05-24 17:12:00,84.5,76.0,29.85,ESE,121,9.0,18.0,76,0.00,,,0.00,weatherlink.com 1.10,2013-05-24 21:12:00,
2013-05-24 17:27:00,84.2,76.0,29.84,East,85,7.0,15.0,77,0.00,,,0.00,weatherlink.com 1.10,2013-05-24 21:27:00,
2013-05-24 17:42:00,84.4,76.0,29.84,East,94,9.0,18.0,75,0.00,,,0.00,weatherlink.com 1.10,2013-05-24 21:42:00,
2013-05-24 17:57:00,84.1,76.0,29.85,East,90,3.0,17.0,76,0.00,,,0.00,weatherlink.com 1.10,2013-05-24 21:57:00,
2013-05-24 18:12:00,83.8,75.0,29.85,East,90,8.0,14.0,74,0.00,,,0.00,weatherlink.com 1.10,2013-05-24 22:12:00,
2013-05-24 18:27:00,83.5,75.0,29.85,ENE,57,7.0,16.0,76,0.00,,,0.00,weatherlink.com 1.10,2013-05-24 22:27:00,
2013-05-24 18:42:00,83.1,76.0,29.85,ENE,68,7.0,15.0,78,0.00,,,0.00,weatherlink.com 1.10,2013-05-24 22:42:00,
2013-05-24 18:57:00,82.7,76.0,29.86,NE,40,6.0,10.0,79,0.00,,,0.00,weatherlink.com 1.10,2013-05-24 22:57:00,
2013-05-24 19:12:00,82.4,76.0,29.86,ENE,70,3.0,12.0,81,0.00,,,0.00,weatherlink.com 1.10,2013-05-24 23:12:00,
2013-05-24 19:27:00,82.3,76.0,29.86,NE,45,9.0,15.0,82,0.00,,,0.00,weatherlink.com 1.10,2013-05-24 23:27:00,
2013-05-24 19:42:00,82.3,76.0,29.87,ENE,59,12.0,14.0,81,0.00,,,0.00,weatherlink.com 1.10,2013-05-24 23:42:00,
2013-05-24 19:57:00,82.2,76.0,29.88,ENE,61,7.0,12.0,81,0.00,,,0.00,weatherlink.com 1.10,2013-05-24 23:57:00,
2013-05-24 20:12:00,82.1,75.0,29.89,ENE,71,10.0,15.0,80,0.00,,,0.00,weatherlink.com 1.10,2013-05-25 00:12:00,
2013-05-24 20:28:00,82.1,76.0,29.89,ENE,72,8.0,13.0,81,0.00,,,0.00,weatherlink.com 1.10,2013-05-25 00:28:00,
2013-05-24 20:43:00,82.1,76.0,29.89,ENE,76,7.0,13.0,81,0.00,,,0.00,weatherlink.com 1.10,2013-05-25 00:43:00,
2013-05-24 20:58:00,82.0,76.0,29.90,ENE,67,3.0,14.0,82,0.00,,,0.00,weatherlink.com 1.10,2013-05-25 00:58:00,
2013-05-24 21:13:00,82.0,76.0,29.90,East,95,8.0,14.0,82,0.00,,,0.00,weatherlink.com 1.10,2013-05-25 01:13:00,
2013-05-24 21:28:00,81.9,76.0,29.90,ENE,78,3.0,14.0,82,0.00,,,0.00,weatherlink.com 1.10,2013-05-25 01:28:00,
2013-05-24 21:43:00,81.8,76.0,29.91,NE,48,7.0,14.0,82,0.00,,,0.00,weatherlink.com 1.10,2013-05-25 01:43:00,
2013-05-24 21:58:00,81.8,76.0,29.92,ENE,63,5.0,13.0,82,0.00,,,0.00,weatherlink.com 1.10,2013-05-25 01:58:00,
2013-05-24 22:13:00,81.8,76.0,29.92,ENE,71,3.0,13.0,82,0.00,,,0.00,weatherlink.com 1.10,2013-05-25 02:13:00,
2013-05-24 22:28:00,81.7,76.0,29.93,ENE,71,2.0,11.0,82,0.00,,,0.00,weatherlink.com 1.10,2013-05-25 02:28:00,
2013-05-24 22:43:00,81.7,76.0,29.93,ENE,59,4.0,9.0,83,0.00,,,0.00,weatherlink.com 1.10,2013-05-25 02:43:00,
2013-05-24 22:58:00,81.7,76.0,29.94,East,86,5.0,11.0,83,0.00,,,0.00,weatherlink.com 1.10,2013-05-25 02:58:00,
2013-05-24 23:13:00,81.7,76.0,29.94,East,86,3.0,11.0,83,0.00,,,0.00,weatherlink.com 1.10,2013-05-25 03:13:00,
2013-05-24 23:28:00,81.7,76.0,29.94,NE,50,3.0,12.0,83,0.00,,,0.00,weatherlink.com 1.10,2013-05-25 03:28:00,
2013-05-24 23:43:00,81.8,76.0,29.93,ENE,78,7.0,10.0,83,0.00,,,0.00,weatherlink.com 1.10,2013-05-25 03:43:00,
2013-05-24 23:58:00,81.7,76.0,29.93,NE,40,6.0,12.0,83,0.00,,,0.00,weatherlink.com 1.10,2013-05-25 03:58:00,